Rossburg, New York
Current Conditions -  °F | °C
As of 7:54 PM on Monday 24 Nov 2014 (Local Time) from KDSV Reporting Station
Clear Clear  
Wind Chill: 58°   Ceiling: Unl
Heat Index: 58°   Visibility: 10mi
Dew Point: 42°   Wind: 5mph
Humidity: 56%   Direction: 220°SW
Pressure: 29.54"   Gusts: NA
Location:  42.5°N, 78.07°W
Report Text: KDSV 250054Z AUTO 22004KT 10SM CLR 14/06 A2954 RMK AO2 SLP011 T01440056
Loading
Personal Weather Stations






























Interactive Weather Map New forecast layout! Learn more

10-Day Weather Forecast

Advertisements
Track Severe Weather on mobile